Escribe el Código OACI del Aeropuerto

Buscar por Aeropuerto o Ciudad

Información Meteorológica Actual

MDPC | Punta Cana International Airport

Punta Cana, Dominican Republic

Última Actualización Hace 36 Minutos

Cielo Parcialmente Nublado

28 ºC de Temperatura

Vientos Moderados del Este

Temperatura

28 ºC

Temperatura del Punto de Rocío

22 ºC

Humedad Relativa

70.07 %

Dirección del Viento

Este (100º, Sin Variaciones de Consideración)

Velocidad del Viento

22 km/h (12 kt)

Ráfagas

No Hay

Visibilidad

Mayor a 10 kilómetros

Presión Reducida a Nivel del Mar

1019 hPa (Hectopascales)

Capas de Nubes

5% a 30% de Cielo Cubierto con Base a 610 mts (2000 ft) de Altura.

30% a 60% de Cielo Cubierto con Base a 2134 mts (7000 ft) de Altura.

METAR MDPC 071400Z 10012KT 9999 FEW020 SCT070 28/22 Q1019

Pronóstico Meteorológico

MDPC | Punta Cana International Airport

Punta Cana, Dominican Republic

Pronóstico válido para las próximas 21 Horas

A partir de este momento se espera:

Cielo con Nubes Dispersas

Vientos Moderados del Este

Temperatura Máxima

Sin Datos

Temperatura Mínima

Sin Datos

TAF MDPC 071000Z 0712/0812 08010KT 9999 FEW018